Time;durP1;ratioP1;P1;durP2;ratioP2;P2;SDS_P1;SDS_P2;PMS_P1;PMS_P2;Temp;Humidity;BMP_temperature;BMP_pressure;BME280_temperature;BME280_humidity;BME280_pressure;Samples;Min_cycle;Max_cycle;Signal;HPM_P1;HPM_P2
2022/12/30 00:02:24;;;;;;;11.93;2.70;;;9.90;97.40;;;;;;6205205;23;20410;-87
2022/12/30 00:05:13;;;;;;;9.30;2.00;;;9.80;97.40;;;;;;6137515;23;20415;-86
2022/12/30 00:08:03;;;;;;;8.13;1.83;;;9.80;97.40;;;;;;6131702;23;20451;-86
2022/12/30 00:10:30;;;;;;;4.93;2.10;;;9.90;97.40;;;;;;6128871;23;20391;-85
2022/12/30 00:33:34;;;;;;;;;;;;;;;;;;;;;
2022/12/30 00:56:57;;;;;;;6.27;1.70;;;9.60;99.20;;;;;;5923518;24;20408;-87
2022/12/30 01:00:18;;;;;;;8.43;2.20;;;9.50;99.50;;;;;;5844968;24;20449;-87
2022/12/30 01:04:04;;;;;;;6.17;1.87;;;9.50;99.70;;;;;;5990734;23;20831;-86
2022/12/30 01:11:03;;;;;;;7.23;2.20;;;9.10;99.90;;;;;;5956557;23;20410;-86
2022/12/30 01:14:31;;;;;;;;;;;;;;;;;;;;;
2022/12/30 01:17:41;;;;;;;5.63;2.40;;;8.80;99.90;;;;;;5875399;24;20406;-87
2022/12/30 01:25:05;;;;;;;6.87;2.10;;;8.80;99.90;;;;;;6015084;23;20472;-87
2022/12/30 01:28:28;;;;;;;;;;;;;;;;;;;;;
2022/12/30 01:32:02;;;;;;;8.87;2.70;;;8.80;99.90;;;;;;5870418;24;20416;-86
2022/12/30 01:35:09;;;;;;;6.23;2.33;;;9.20;99.90;;;;;;5836844;24;20428;-87
2022/12/30 01:42:19;;;;;;;5.90;2.10;;;9.10;99.90;;;;;;5788960;24;20414;-86
2022/12/30 01:45:46;;;;;;;12.27;2.93;;;9.10;99.90;;;;;;5775809;24;20434;-86
2022/12/30 01:48:59;;;;;;;;;;;;;;;;;;;;;
2022/12/30 01:52:13;;;;;;;5.97;2.37;;;9.10;99.90;;;;;;5952043;24;20438;-86
2022/12/30 01:55:05;;;;;;;6.80;1.93;;;9.00;99.90;;;;;;5939378;24;20437;-87
2022/12/30 01:57:50;;;;;;;10.80;2.03;;;8.90;99.90;;;;;;5931917;24;20468;-86
2022/12/30 02:00:21;;;;;;;5.70;2.00;;;8.90;99.90;;;;;;5956641;24;20412;-87
2022/12/30 02:02:55;;;;;;;8.87;1.80;;;8.80;99.90;;;;;;5966914;24;20484;-87
2022/12/30 02:05:37;;;;;;;4.97;2.00;;;8.80;99.90;;;;;;6014069;23;20421;-86
2022/12/30 02:08:23;;;;;;;4.90;2.33;;;9.00;99.90;;;;;;6063781;23;20512;-84
2022/12/30 02:10:57;;;;;;;8.30;1.73;;;9.00;99.90;;;;;;6039355;23;20413;-87
2022/12/30 02:13:36;;;;;;;5.60;1.73;;;8.90;99.90;;;;;;6045270;23;20449;-86
2022/12/30 02:16:41;;;;;;;4.33;2.00;;;8.80;99.90;;;;;;6152912;23;20391;-87
2022/12/30 02:19:44;;;;;;;8.23;3.30;;;8.90;99.90;;;;;;6152857;23;20809;-86
2022/12/30 02:23:02;;;;;;;10.33;2.37;;;9.00;99.90;;;;;;6101795;23;20410;-86
2022/12/30 02:26:07;;;;;;;4.87;1.67;;;8.80;99.90;;;;;;6144246;23;20415;-85
2022/12/30 02:29:06;;;;;;;2.33;1.93;;;8.90;99.90;;;;;;6119774;23;20531;-85
2022/12/30 02:32:04;;;;;;;4.20;1.70;;;8.80;99.90;;;;;;6121618;23;20439;-87
2022/12/30 02:34:39;;;;;;;7.20;2.23;;;8.80;99.90;;;;;;6147877;23;20454;-87
2022/12/30 02:37:16;;;;;;;6.80;2.93;;;8.80;99.90;;;;;;6147441;23;20462;-88
2022/12/30 02:39:50;;;;;;;5.37;1.90;;;8.60;99.90;;;;;;6123378;23;20418;-88
2022/12/30 02:45:37;;;;;;;3.67;1.90;;;8.50;99.90;;;;;;6145343;23;20483;-86
2022/12/30 02:48:26;;;;;;;6.37;3.13;;;8.40;99.90;;;;;;6145157;23;20453;-86
2022/12/30 02:53:46;;;;;;;1.80;1.23;;;8.60;99.90;;;;;;6147013;23;20462;-87
2022/12/30 02:56:19;;;;;;;8.67;2.50;;;8.50;99.90;;;;;;6144567;23;20430;-85
2022/12/30 03:05:06;;;;;;;5.53;2.83;;;8.60;99.90;;;;;;6148473;23;20445;-88
2022/12/30 03:08:04;;;;;;;4.10;1.73;;;8.70;99.90;;;;;;6127022;23;20474;-86
2022/12/30 03:14:00;;;;;;;7.40;1.53;;;8.50;99.90;;;;;;6147175;23;20445;-87
2022/12/30 03:16:50;;;;;;;6.47;2.27;;;8.60;99.90;;;;;;6122653;23;20442;-87
2022/12/30 03:19:35;;;;;;;5.10;1.60;;;8.50;99.90;;;;;;6146277;23;21229;-88
2022/12/30 03:27:49;;;;;;;8.93;2.67;;;8.60;99.90;;;;;;6146028;23;20541;-86
2022/12/30 03:30:17;;;;;;;4.13;1.80;;;8.60;99.90;;;;;;6120834;23;20912;-86
2022/12/30 03:32:48;;;;;;;9.23;2.67;;;8.60;99.90;;;;;;6145794;23;20418;-88
2022/12/30 03:35:17;;;;;;;4.90;1.97;;;8.40;99.90;;;;;;6120329;23;20395;-88
2022/12/30 03:38:00;;;;;;;4.73;2.30;;;8.40;99.90;;;;;;6121374;23;20411;-86
2022/12/30 03:40:42;;;;;;;4.57;3.10;;;8.60;99.90;;;;;;6120367;23;20411;-87
2022/12/30 03:43:22;;;;;;;11.20;2.80;;;8.50;99.90;;;;;;6144210;23;20554;-88
2022/12/30 03:46:02;;;;;;;9.97;5.00;;;8.50;99.90;;;;;;6144712;23;20482;-86
2022/12/30 03:48:29;;;;;;;6.50;3.97;;;8.60;99.90;;;;;;6119337;23;20504;-87
2022/12/30 03:51:03;;;;;;;4.20;3.50;;;8.60;99.90;;;;;;6119599;23;20458;-88
2022/12/30 03:53:34;;;;;;;6.70;2.80;;;8.50;99.90;;;;;;6120601;23;20445;-87
2022/12/30 03:56:07;;;;;;;3.73;1.87;;;8.40;99.90;;;;;;6119709;23;20439;-88
2022/12/30 03:58:35;;;;;;;5.80;1.77;;;8.50;99.90;;;;;;6119099;23;20418;-89
2022/12/30 04:01:09;;;;;;;11.93;2.27;;;8.50;99.90;;;;;;6122050;23;20442;-87
2022/12/30 04:03:43;;;;;;;3.93;1.97;;;8.40;99.90;;;;;;6120514;23;20438;-88
2022/12/30 04:06:18;;;;;;;3.83;1.93;;;8.50;99.90;;;;;;6120044;23;20872;-87
2022/12/30 04:09:05;;;;;;;6.43;2.73;;;8.60;99.90;;;;;;6118095;23;20454;-88
2022/12/30 04:11:35;;;;;;;7.40;2.00;;;8.50;99.90;;;;;;6119837;23;20402;-88
2022/12/30 04:14:08;;;;;;;7.60;1.77;;;8.30;99.90;;;;;;6122497;23;20443;-86
2022/12/30 04:16:35;;;;;;;9.40;2.27;;;8.10;99.90;;;;;;6145960;23;20406;-88
2022/12/30 04:19:12;;;;;;;5.10;1.80;;;8.00;99.90;;;;;;6120685;23;20473;-87
2022/12/30 04:21:42;;;;;;;5.00;2.30;;;7.90;99.90;;;;;;6146926;23;20427;-86
2022/12/30 04:24:09;;;;;;;6.10;1.97;;;7.80;99.90;;;;;;6121410;23;20497;-87
2022/12/30 04:26:46;;;;;;;5.63;1.30;;;7.80;99.90;;;;;;6125344;23;20841;-87
2022/12/30 04:29:24;;;;;;;8.90;2.50;;;7.80;99.90;;;;;;6131833;23;20415;-85
2022/12/30 04:32:14;;;;;;;10.30;2.17;;;7.70;99.90;;;;;;6151164;23;20420;-85
2022/12/30 04:35:42;;;;;;;6.07;1.80;;;7.60;99.90;;;;;;6123328;23;20434;-85
2022/12/30 04:38:31;;;;;;;4.73;1.93;;;7.60;99.90;;;;;;6144205;23;20817;-86
2022/12/30 04:41:47;;;;;;;2.30;1.60;;;7.60;99.90;;;;;;6027197;23;20465;-85
2022/12/30 04:44:24;;;;;;;6.60;1.80;;;7.70;99.90;;;;;;6025628;23;20450;-86
2022/12/30 04:47:20;;;;;;;4.93;1.83;;;7.70;99.90;;;;;;6027279;23;20453;-86
2022/12/30 04:53:54;;;;;;;5.23;2.00;;;7.60;99.90;;;;;;6056414;23;20853;-86
2022/12/30 04:57:13;;;;;;;4.37;1.83;;;7.60;99.90;;;;;;6054786;23;20424;-87
2022/12/30 05:00:17;;;;;;;5.57;1.83;;;7.60;99.90;;;;;;6042821;23;20425;-85
2022/12/30 05:03:11;;;;;;;6.17;2.50;;;7.70;99.90;;;;;;6034297;23;20440;-85
2022/12/30 05:06:10;;;;;;;7.20;2.53;;;7.80;99.90;;;;;;6021917;23;20996;-84
2022/12/30 05:13:13;;;;;;;7.00;2.10;;;7.90;99.90;;;;;;6089714;23;20413;-85
2022/12/30 05:20:05;;;;;;;5.87;2.30;;;7.90;99.90;;;;;;6029569;23;20466;-85
2022/12/30 05:27:04;;;;;;;5.43;2.00;;;7.70;99.90;;;;;;6136204;23;20430;-85
2022/12/30 05:29:46;;;;;;;5.80;1.87;;;8.00;99.90;;;;;;6126392;23;20417;-86
2022/12/30 05:32:46;;;;;;;4.20;1.90;;;7.90;99.90;;;;;;6091436;23;20902;-85
2022/12/30 05:36:13;;;;;;;6.67;2.40;;;8.10;99.90;;;;;;6144473;23;20393;-86
2022/12/30 05:42:54;;;;;;;3.17;1.60;;;7.90;99.90;;;;;;6172310;23;20398;-86
2022/12/30 05:45:57;;;;;;;;;;;;;;;;;;;;;
2022/12/30 05:48:58;;;;;;;4.23;1.87;;;7.90;99.90;;;;;;6165433;23;20453;-84
2022/12/30 05:55:37;;;;;;;7.00;1.77;;;7.90;99.90;;;;;;6145213;23;20546;-83
2022/12/30 05:58:50;;;;;;;6.97;2.10;;;7.90;99.90;;;;;;6005290;23;20417;-83
2022/12/30 06:01:55;;;;;;;3.20;2.00;;;7.90;99.90;;;;;;6018060;23;20403;-84
2022/12/30 06:04:38;;;;;;;9.27;2.40;;;8.00;99.90;;;;;;5917756;24;20561;-83
2022/12/30 06:08:08;;;;;;;;;;;;;;;;;;;;;
2022/12/30 06:11:11;;;;;;;5.20;1.57;;;7.90;99.90;;;;;;5931378;24;20492;-86
2022/12/30 06:14:28;;;;;;;;;;;;;;;;;;;;;
2022/12/30 06:17:22;;;;;;;7.17;1.70;;;7.70;99.90;;;;;;5931130;24;20422;-86
2022/12/30 06:20:06;;;;;;;5.03;1.60;;;7.70;99.90;;;;;;5941282;24;20444;-85
2022/12/30 06:23:11;;;;;;;1.63;1.53;;;7.60;99.90;;;;;;5918756;24;20416;-85
2022/12/30 06:26:16;;;;;;;3.90;2.17;;;7.50;99.90;;;;;;5923135;24;20879;-85
2022/12/30 06:35:37;;;;;;;6.50;2.03;;;7.40;99.90;;;;;;6193373;23;20523;-86
2022/12/30 06:38:51;;;;;;;3.23;1.90;;;7.30;99.90;;;;;;6182923;23;20476;-84
2022/12/30 06:42:03;;;;;;;4.67;1.50;;;7.30;99.90;;;;;;6151453;23;20389;-87
2022/12/30 06:45:08;;;;;;;9.67;1.80;;;7.30;99.90;;;;;;6167525;23;20434;-86
2022/12/30 06:48:06;;;;;;;8.70;2.80;;;7.40;99.90;;;;;;6179179;23;20473;-87
2022/12/30 06:54:54;;;;;;;;;;;;;;;;;;;;;
2022/12/30 06:57:38;;;;;;;4.23;1.30;;;7.60;99.90;;;;;;6173049;23;20473;-86
2022/12/30 07:00:25;;;;;;;4.47;1.70;;;7.80;99.90;;;;;;6181249;23;20502;-85
2022/12/30 07:03:40;;;;;;;3.63;1.60;;;7.90;99.90;;;;;;6155863;23;20417;-86
2022/12/30 07:06:20;;;;;;;3.73;1.97;;;7.80;99.90;;;;;;6178230;23;20428;-85
2022/12/30 07:09:09;;;;;;;8.00;2.30;;;8.00;99.90;;;;;;6200190;23;20450;-86
2022/12/30 07:12:24;;;;;;;5.20;1.80;;;8.10;99.90;;;;;;6082533;23;20401;-87
2022/12/30 07:15:15;;;;;;;6.00;2.10;;;8.00;99.90;;;;;;6063511;23;20433;-84
2022/12/30 07:18:16;;;;;;;6.87;1.73;;;8.10;99.90;;;;;;6057520;23;20424;-86
2022/12/30 07:21:40;;;;;;;5.03;1.47;;;8.00;99.90;;;;;;6044001;23;20412;-86
2022/12/30 07:24:53;;;;;;;4.50;1.90;;;8.20;99.90;;;;;;6062398;23;20494;-85
2022/12/30 07:28:20;;;;;;;7.47;1.87;;;8.20;99.90;;;;;;6083948;23;20554;-88
2022/12/30 07:31:24;;;;;;;6.43;1.70;;;8.20;99.90;;;;;;6048770;23;20443;-85
2022/12/30 07:34:34;;;;;;;4.10;1.50;;;8.20;99.90;;;;;;5996170;23;20480;-85
2022/12/30 07:37:38;;;;;;;;;;;;;;;;;;;;;
2022/12/30 07:40:55;;;;;;;;;;;;;;;;;;;;;
2022/12/30 07:44:07;;;;;;;4.20;1.73;;;8.20;99.90;;;;;;6051219;23;20769;-87
2022/12/30 07:47:07;;;;;;;5.17;2.00;;;8.10;99.90;;;;;;6028407;23;20409;-85
2022/12/30 07:50:17;;;;;;;9.30;1.83;;;8.10;99.90;;;;;;6082393;23;20449;-86
2022/12/30 07:53:34;;;;;;;;;;;;;;;;;;;;;
2022/12/30 07:56:49;;;;;;;;;;;;;;;;;;;;;
2022/12/30 08:00:19;;;;;;;2.73;1.40;;;8.00;99.90;;;;;;6089594;23;20420;-86
2022/12/30 08:03:19;;;;;;;4.60;2.27;;;8.00;99.90;;;;;;6076365;23;20500;-86
2022/12/30 08:06:52;;;;;;;4.33;1.97;;;8.10;99.90;;;;;;6136315;23;20401;-85
2022/12/30 08:10:17;;;;;;;2.50;1.43;;;8.20;99.90;;;;;;6175737;23;20452;-87
2022/12/30 08:13:32;;;;;;;4.40;1.20;;;8.30;99.90;;;;;;6165177;23;20782;-84
2022/12/30 08:16:17;;;;;;;2.63;1.40;;;8.50;99.90;;;;;;6167654;23;20452;-85
2022/12/30 08:19:14;;;;;;;3.13;1.40;;;8.60;99.90;;;;;;6171850;23;20853;-86
2022/12/30 08:22:10;;;;;;;2.90;1.90;;;8.70;99.90;;;;;;6171072;23;20418;-85
2022/12/30 08:25:10;;;;;;;5.47;2.63;;;8.80;99.90;;;;;;6167806;23;20429;-86
2022/12/30 08:28:18;;;;;;;3.70;1.30;;;8.80;99.90;;;;;;6139023;23;21079;-86
2022/12/30 08:35:16;;;;;;;6.40;1.50;;;9.00;99.90;;;;;;6084932;23;20538;-86
2022/12/30 08:38:22;;;;;;;3.67;1.50;;;9.10;99.90;;;;;;6140918;23;20406;-85
2022/12/30 08:41:49;;;;;;;3.20;1.40;;;9.00;99.90;;;;;;6151142;23;20612;-87
2022/12/30 08:44:47;;;;;;;2.80;1.40;;;9.10;99.90;;;;;;6169473;23;20428;-85
2022/12/30 08:52:01;;;;;;;5.50;1.30;;;9.10;99.90;;;;;;6175580;23;20377;-87
2022/12/30 08:55:29;;;;;;;2.80;1.33;;;9.30;99.90;;;;;;6149464;23;20412;-84
2022/12/30 09:12:14;;;;;;;5.53;1.53;;;9.70;99.90;;;;;;6035097;23;20457;-87
2022/12/30 09:18:20;;;;;;;2.20;1.20;;;9.70;99.90;;;;;;6143694;23;20446;-87
2022/12/30 09:20:55;;;;;;;9.47;2.03;;;9.70;99.90;;;;;;6177600;23;20798;-87
2022/12/30 09:31:40;;;;;;;3.20;1.57;;;10.00;99.90;;;;;;6129959;23;20399;-88
2022/12/30 09:34:28;;;;;;;3.00;2.00;;;10.00;99.90;;;;;;6144978;23;20433;-86
2022/12/30 09:37:34;;;;;;;3.20;0.80;;;10.30;99.90;;;;;;6146191;23;20425;-90
2022/12/30 09:40:46;;;;;;;5.57;1.67;;;10.50;99.90;;;;;;6138388;23;20446;-88
2022/12/30 09:43:52;;;;;;;2.87;1.50;;;10.60;99.90;;;;;;6113652;23;20411;-86
2022/12/30 09:47:23;;;;;;;5.07;1.10;;;10.60;99.80;;;;;;6149385;23;20422;-88
2022/12/30 09:50:58;;;;;;;;;;;;;;;;;;;;;
2022/12/30 09:57:44;;;;;;;3.00;2.00;;;10.50;99.40;;;;;;5957879;23;20984;-87
2022/12/30 10:00:55;;;;;;;;;;;;;;;;;;;;;
2022/12/30 10:03:50;;;;;;;3.50;1.03;;;10.50;99.20;;;;;;6052649;23;20488;-89
2022/12/30 10:06:53;;;;;;;3.53;1.10;;;10.50;99.10;;;;;;6034683;23;20432;-87
2022/12/30 10:10:15;;;;;;;;;;;;;;;;;;;;;
2022/12/30 10:13:13;;;;;;;3.63;1.67;;;10.50;98.70;;;;;;6057289;23;20562;-86
2022/12/30 10:16:16;;;;;;;1.20;0.70;;;10.50;99.00;;;;;;6033833;23;20417;-87
2022/12/30 10:19:21;;;;;;;0.90;0.90;;;10.60;98.90;;;;;;6011072;23;20436;-87
2022/12/30 10:22:14;;;;;;;2.80;1.57;;;10.60;98.80;;;;;;6035296;23;20417;-88
2022/12/30 10:24:52;;;;;;;1.50;1.00;;;10.50;98.90;;;;;;6057907;23;20441;-86
2022/12/30 10:27:44;;;;;;;5.07;1.63;;;10.60;98.70;;;;;;6004418;23;20405;-87
2022/12/30 10:30:14;;;;;;;4.20;1.30;;;10.50;99.00;;;;;;6050996;23;20418;-88
2022/12/30 10:32:53;;;;;;;3.57;1.40;;;10.70;98.70;;;;;;6122081;23;21117;-86
2022/12/30 10:35:40;;;;;;;2.93;1.60;;;10.50;99.00;;;;;;6144754;23;20411;-86
2022/12/30 10:38:32;;;;;;;2.07;1.30;;;10.70;99.00;;;;;;6141284;23;20403;-87
2022/12/30 10:41:50;;;;;;;2.17;1.17;;;10.70;98.60;;;;;;6145779;23;20425;-88
2022/12/30 10:45:02;;;;;;;3.40;1.63;;;10.80;98.40;;;;;;6146510;23;20431;-90
2022/12/30 10:47:53;;;;;;;4.03;1.30;;;10.50;98.70;;;;;;6140238;23;20875;-87
2022/12/30 10:50:45;;;;;;;5.70;1.50;;;10.70;99.30;;;;;;6169541;23;20455;-89
2022/12/30 10:53:35;;;;;;;1.90;1.27;;;10.80;98.70;;;;;;6139563;23;21085;-87
2022/12/30 10:56:23;;;;;;;3.13;1.33;;;10.60;98.80;;;;;;6146887;23;20403;-89
2022/12/30 10:58:56;;;;;;;1.60;1.20;;;10.70;98.90;;;;;;6150684;23;20899;-86
2022/12/30 11:01:58;;;;;;;3.50;1.77;;;10.70;98.80;;;;;;6147503;23;20432;-87
2022/12/30 11:04:59;;;;;;;5.67;1.80;;;10.80;99.00;;;;;;6171480;23;20466;-87
2022/12/30 11:08:21;;;;;;;4.33;2.00;;;10.80;98.60;;;;;;6038262;23;20751;-86
2022/12/30 11:11:16;;;;;;;3.33;1.87;;;10.80;98.90;;;;;;6034099;23;20410;-87
2022/12/30 11:17:15;;;;;;;4.33;2.90;;;10.80;98.60;;;;;;6003319;23;20386;-88
2022/12/30 11:20:29;;;;;;;;;;;;;;;;;;;;;
2022/12/30 11:23:45;;;;;;;3.10;1.90;;;10.70;98.40;;;;;;6059500;23;20417;-87
2022/12/30 11:27:03;;;;;;;;;;;;;;;;;;;;;
2022/12/30 11:29:53;;;;;;;4.47;1.63;;;10.70;98.30;;;;;;6062775;23;20453;-87
2022/12/30 11:33:16;;;;;;;2.20;1.50;;;10.70;98.30;;;;;;6062835;23;20396;-87
2022/12/30 11:36:54;;;;;;;2.90;1.47;;;10.70;98.40;;;;;;6049071;23;20842;-88
2022/12/30 11:39:50;;;;;;;2.07;1.27;;;10.60;98.60;;;;;;6010713;23;20422;-87
2022/12/30 11:42:57;;;;;;;3.30;1.50;;;10.70;98.40;;;;;;6014758;23;20462;-86
2022/12/30 11:46:31;;;;;;;3.33;2.20;;;10.70;98.30;;;;;;6077936;23;20410;-87
2022/12/30 11:50:08;;;;;;;5.57;1.80;;;10.70;98.40;;;;;;6060472;23;20448;-87
2022/12/30 11:53:22;;;;;;;6.30;1.80;;;10.70;98.30;;;;;;6151124;23;20628;-85
2022/12/30 12:00:09;;;;;;;;;;;;;;;;;;;;;
2022/12/30 12:03:39;;;;;;;;;;;;;;;;;;;;;
2022/12/30 12:06:52;;;;;;;3.60;1.60;;;10.90;97.90;;;;;;6070531;23;20436;-86
2022/12/30 12:10:26;;;;;;;3.33;2.20;;;10.80;97.80;;;;;;6154459;23;20443;-86
2022/12/30 12:13:55;;;;;;;5.63;1.57;;;10.60;98.20;;;;;;6152080;23;20422;-87
2022/12/30 12:17:09;;;;;;;4.57;1.40;;;10.80;98.20;;;;;;6167987;23;20422;-86
2022/12/30 12:24:20;;;;;;;4.07;1.70;;;10.70;98.20;;;;;;6154426;23;20474;-87
2022/12/30 12:27:30;;;;;;;3.50;1.50;;;10.70;98.40;;;;;;6175749;23;20367;-87
2022/12/30 12:30:59;;;;;;;2.27;1.00;;;10.60;98.70;;;;;;6159745;23;20656;-88
2022/12/30 12:34:24;;;;;;;6.40;1.40;;;10.40;99.10;;;;;;6081469;23;20442;-87
2022/12/30 12:37:59;;;;;;;5.83;1.33;;;10.50;99.10;;;;;;6169572;23;20457;-87
2022/12/30 12:41:52;;;;;;;2.93;1.37;;;10.60;99.20;;;;;;6172703;23;20402;-87
2022/12/30 12:45:20;;;;;;;2.10;1.00;;;10.60;99.10;;;;;;6088527;23;20407;-86
2022/12/30 12:48:52;;;;;;;2.77;1.50;;;10.60;99.10;;;;;;6103665;23;20417;-86
2022/12/30 12:52:11;;;;;;;;;;;;;;;;;;;;;
2022/12/30 12:55:11;;;;;;;1.60;1.33;;;10.60;99.10;;;;;;6062664;23;20421;-87
2022/12/30 12:58:30;;;;;;;2.20;1.30;;;10.70;99.10;;;;;;6176116;23;20775;-87
2022/12/30 13:01:50;;;;;;;2.77;1.10;;;10.70;99.10;;;;;;6154353;23;20427;-86
2022/12/30 13:08:20;;;;;;;3.30;1.03;;;10.80;98.70;;;;;;6124310;23;20441;-86
2022/12/30 13:15:00;;;;;;;3.20;1.20;;;10.80;98.60;;;;;;6140659;23;20414;-88
2022/12/30 13:18:11;;;;;;;2.13;1.20;;;10.80;98.30;;;;;;6141611;23;20442;-87
2022/12/30 13:28:38;;;;;;;2.83;1.27;;;10.80;98.60;;;;;;6124873;23;20456;-86
2022/12/30 13:36:12;;;;;;;4.93;1.10;;;10.80;98.90;;;;;;6058186;23;20966;-87
2022/12/30 13:39:37;;;;;;;2.63;1.10;;;10.80;99.90;;;;;;6121742;23;20396;-85
2022/12/30 13:42:39;;;;;;;3.63;1.20;;;10.90;99.50;;;;;;6089409;23;20652;-89
2022/12/30 13:46:35;;;;;;;3.70;1.00;;;11.00;99.60;;;;;;6102990;23;20388;-86
2022/12/30 13:49:19;;;;;;;2.80;0.90;;;10.80;99.90;;;;;;5898956;24;20507;-87
2022/12/30 13:52:26;;;;;;;2.70;1.50;;;10.70;99.90;;;;;;5922824;24;20473;-87
2022/12/30 13:56:09;;;;;;;3.10;1.80;;;10.80;99.90;;;;;;5969037;24;20485;-86
2022/12/30 13:58:49;;;;;;;2.37;1.00;;;10.80;99.90;;;;;;5901914;24;20433;-88
2022/12/30 14:01:35;;;;;;;1.47;1.37;;;10.80;99.90;;;;;;5923344;24;20484;-87
2022/12/30 14:04:40;;;;;;;2.03;1.20;;;10.80;99.90;;;;;;5962042;24;20507;-85
2022/12/30 14:07:39;;;;;;;4.50;1.13;;;10.60;99.90;;;;;;5966554;23;20509;-87
2022/12/30 14:10:20;;;;;;;3.53;1.60;;;10.50;99.90;;;;;;6125337;23;20451;-88
2022/12/30 14:13:25;;;;;;;1.27;1.17;;;10.50;99.90;;;;;;6100728;23;20465;-86
2022/12/30 14:16:09;;;;;;;2.13;1.13;;;10.40;99.90;;;;;;6098895;23;20430;-86
2022/12/30 14:19:31;;;;;;;2.70;1.20;;;10.40;99.90;;;;;;6099795;23;20423;-87
2022/12/30 14:25:49;;;;;;;3.03;1.10;;;10.30;99.90;;;;;;6123217;23;20427;-86
2022/12/30 14:28:35;;;;;;;2.80;1.00;;;;;;;;;;6110770;23;20418;-87
2022/12/30 14:31:59;;;;;;;2.50;0.80;;;10.50;99.90;;;;;;6134295;23;20435;-85
2022/12/30 14:35:19;;;;;;;2.90;1.07;;;10.50;99.90;;;;;;6124592;23;20523;-88
2022/12/30 14:38:40;;;;;;;1.17;1.00;;;10.50;99.90;;;;;;6128284;23;20412;-87
2022/12/30 14:41:48;;;;;;;2.50;1.20;;;10.40;99.90;;;;;;6100526;23;20503;-85
2022/12/30 14:44:42;;;;;;;2.10;0.97;;;10.50;99.90;;;;;;6096958;23;20498;-85
2022/12/30 14:47:46;;;;;;;1.97;0.97;;;10.40;99.90;;;;;;6104143;23;20408;-85
2022/12/30 14:50:25;;;;;;;3.03;0.93;;;10.50;99.90;;;;;;6094664;23;20448;-84
2022/12/30 15:03:10;;;;;;;2.67;1.20;;;10.50;99.90;;;;;;6124979;23;20440;-85
2022/12/30 15:06:19;;;;;;;4.07;1.20;;;10.50;99.90;;;;;;6078972;23;20867;-86
2022/12/30 15:09:52;;;;;;;3.30;1.20;;;10.50;99.90;;;;;;6101866;23;20447;-86
2022/12/30 15:13:14;;;;;;;;;;;;;;;;;;;;;
2022/12/30 15:20:48;;;;;;;3.37;1.33;;;10.50;99.90;;;;;;6117953;23;20482;-86
2022/12/30 15:24:32;;;;;;;2.73;1.63;;;10.40;99.90;;;;;;6094228;23;20442;-85
2022/12/30 15:31:03;;;;;;;1.40;1.30;;;10.60;99.90;;;;;;6121456;23;20422;-84
2022/12/30 15:38:14;;;;;;;1.77;1.27;;;10.50;99.90;;;;;;6034001;23;20624;-85
2022/12/30 15:41:22;;;;;;;1.70;1.13;;;10.40;99.90;;;;;;6035300;23;20394;-87
2022/12/30 15:47:41;;;;;;;4.03;1.40;;;10.50;99.90;;;;;;6028877;23;20598;-86
2022/12/30 15:54:40;;;;;;;2.60;1.40;;;10.60;99.90;;;;;;6034252;23;20419;-87
2022/12/30 15:58:43;;;;;;;1.73;1.40;;;10.60;99.90;;;;;;6039482;23;20422;-87
2022/12/30 16:01:36;;;;;;;2.47;1.53;;;10.70;99.90;;;;;;5976776;23;20780;-85
2022/12/30 16:04:26;;;;;;;1.77;1.00;;;10.70;99.90;;;;;;6102756;23;20436;-85
2022/12/30 16:11:25;;;;;;;4.93;1.60;;;10.60;99.90;;;;;;6081043;23;20447;-85
2022/12/30 16:14:49;;;;;;;1.20;1.00;;;10.60;99.90;;;;;;6071954;23;20446;-85
2022/12/30 16:18:43;;;;;;;3.03;1.47;;;10.60;99.90;;;;;;5991940;23;20427;-86
2022/12/30 16:22:06;;;;;;;1.77;1.10;;;10.90;99.90;;;;;;5834949;24;20417;-85
2022/12/30 16:25:35;;;;;;;;;;;;;;;;;;;;;
2022/12/30 16:29:08;;;;;;;1.50;1.00;;;10.80;99.90;;;;;;5939983;24;20432;-87
2022/12/30 16:32:51;;;;;;;2.13;1.27;;;10.90;99.90;;;;;;5952293;24;20410;-87
2022/12/30 16:36:03;;;;;;;1.83;1.33;;;10.90;99.90;;;;;;6130209;23;20404;-88
2022/12/30 16:39:35;;;;;;;4.10;2.17;;;10.90;99.90;;;;;;6123002;23;20410;-86
2022/12/30 16:46:29;;;;;;;2.13;1.33;;;10.90;99.90;;;;;;6110304;23;20953;-88
2022/12/30 16:52:48;;;;;;;1.43;1.20;;;10.90;99.90;;;;;;6090341;23;20451;-86
2022/12/30 16:56:00;;;;;;;1.53;1.00;;;11.00;99.90;;;;;;6094633;23;20550;-85
2022/12/30 16:58:49;;;;;;;1.33;1.23;;;11.10;99.90;;;;;;6095274;23;20439;-86
2022/12/30 17:01:36;;;;;;;4.47;1.40;;;11.30;99.90;;;;;;6089900;23;20404;-86
2022/12/30 17:04:18;;;;;;;1.77;1.20;;;11.30;99.90;;;;;;6135087;23;20462;-84
2022/12/30 17:07:22;;;;;;;1.43;1.33;;;11.30;99.90;;;;;;6103304;23;20455;-87
2022/12/30 17:13:04;;;;;;;1.30;1.10;;;11.80;99.90;;;;;;6138811;23;20407;-87
2022/12/30 17:16:02;;;;;;;1.07;0.90;;;11.80;99.90;;;;;;6115993;23;20395;-84
2022/12/30 17:21:49;;;;;;;1.20;1.10;;;12.10;99.90;;;;;;6140062;23;20411;-88
2022/12/30 17:24:42;;;;;;;1.30;1.20;;;12.20;99.90;;;;;;6109464;23;20435;-86
2022/12/30 17:27:37;;;;;;;1.40;1.30;;;12.30;99.90;;;;;;6112496;23;20407;-85
2022/12/30 17:30:18;;;;;;;1.50;1.33;;;12.20;99.90;;;;;;6132891;23;20453;-86
2022/12/30 17:33:01;;;;;;;0.80;0.80;;;12.30;99.90;;;;;;6098818;23;20419;-85
2022/12/30 17:36:11;;;;;;;1.20;1.10;;;12.30;99.90;;;;;;6102235;23;20391;-85
2022/12/30 17:38:58;;;;;;;1.40;1.00;;;12.40;99.90;;;;;;6123475;23;20416;-87
2022/12/30 17:41:41;;;;;;;0.80;0.80;;;12.20;99.90;;;;;;6096106;23;20453;-86
2022/12/30 17:44:24;;;;;;;1.10;0.80;;;12.30;99.90;;;;;;6100133;23;20435;-88
2022/12/30 17:47:03;;;;;;;0.70;0.70;;;12.40;99.90;;;;;;6122281;23;20407;-87
2022/12/30 17:49:44;;;;;;;1.43;0.63;;;12.40;99.90;;;;;;6102023;23;20443;-85
2022/12/30 17:52:32;;;;;;;0.70;0.70;;;12.50;99.90;;;;;;6079358;23;20412;-87
2022/12/30 17:55:01;;;;;;;0.60;0.60;;;12.60;99.90;;;;;;6095352;23;20529;-87
2022/12/30 17:57:29;;;;;;;1.33;1.00;;;12.60;99.90;;;;;;6096098;23;20435;-87
2022/12/30 18:00:32;;;;;;;0.77;0.77;;;12.50;99.90;;;;;;6098676;23;20415;-85
2022/12/30 18:03:22;;;;;;;0.83;0.70;;;12.60;99.90;;;;;;6090028;23;20491;-86
2022/12/30 18:05:56;;;;;;;0.83;0.83;;;12.50;99.90;;;;;;6125198;23;20415;-87
2022/12/30 18:08:38;;;;;;;1.40;0.97;;;12.50;99.90;;;;;;6083038;23;20435;-87
2022/12/30 18:11:52;;;;;;;1.00;0.90;;;12.60;99.90;;;;;;6124216;23;20501;-88
2022/12/30 18:15:08;;;;;;;1.27;1.17;;;12.70;99.90;;;;;;6085385;23;20461;-87
2022/12/30 18:18:40;;;;;;;;;;;;;;;;;;;;;
2022/12/30 18:21:28;;;;;;;1.27;1.00;;;12.70;99.90;;;;;;6119799;23;20423;-86
2022/12/30 18:24:38;;;;;;;1.30;1.20;;;12.50;99.90;;;;;;6098069;23;20455;-85
2022/12/30 18:27:51;;;;;;;1.70;0.80;;;12.60;99.90;;;;;;6097430;23;20419;-87
2022/12/30 18:31:13;;;;;;;1.70;1.17;;;12.60;99.90;;;;;;6102953;23;20455;-86
2022/12/30 18:34:42;;;;;;;;;;;;;;;;;;;;;
2022/12/30 18:37:58;;;;;;;1.03;0.90;;;12.70;99.90;;;;;;6133153;23;20415;-86
2022/12/30 18:41:33;;;;;;;;;;;;;;;;;;;;;
2022/12/30 18:44:54;;;;;;;1.50;1.40;;;12.60;99.90;;;;;;6138578;23;20419;-84
2022/12/30 18:48:05;;;;;;;0.83;0.77;;;12.70;99.90;;;;;;6118314;23;20498;-86
2022/12/30 18:51:25;;;;;;;0.60;0.60;;;12.80;99.90;;;;;;6125949;23;20470;-87
2022/12/30 18:54:12;;;;;;;1.10;0.73;;;12.70;99.90;;;;;;6123968;23;20447;-88
2022/12/30 18:57:02;;;;;;;0.80;0.80;;;12.90;99.90;;;;;;6119978;23;20411;-87
2022/12/30 19:00:14;;;;;;;0.97;0.60;;;12.80;99.90;;;;;;6140838;23;20423;-86
2022/12/30 19:03:21;;;;;;;0.80;0.70;;;12.90;99.90;;;;;;6118696;23;21055;-87
2022/12/30 19:06:28;;;;;;;0.50;0.50;;;12.60;99.90;;;;;;6060317;23;20413;-88
2022/12/30 19:09:33;;;;;;;1.93;0.70;;;12.90;99.90;;;;;;6074890;23;20424;-84
2022/12/30 19:12:47;;;;;;;0.60;0.60;;;13.00;99.90;;;;;;6068591;23;20429;-85
2022/12/30 19:15:23;;;;;;;0.80;0.80;;;13.10;99.90;;;;;;6006584;23;20403;-87
2022/12/30 19:18:21;;;;;;;;;;;;;;;;;;;;;
2022/12/30 19:20:57;;;;;;;0.87;0.87;;;13.20;99.90;;;;;;6079548;23;20413;-87
2022/12/30 19:27:17;;;;;;;2.13;0.70;;;13.10;99.90;;;;;;6169985;23;20427;-86
2022/12/30 19:30:37;;;;;;;0.90;0.90;;;13.10;99.90;;;;;;6144133;23;20439;-87
2022/12/30 19:33:49;;;;;;;1.33;1.00;;;13.10;99.90;;;;;;6186629;23;20468;-86
2022/12/30 19:37:14;;;;;;;1.70;0.80;;;13.00;99.90;;;;;;6060075;23;20398;-86
2022/12/30 19:40:20;;;;;;;0.90;0.87;;;13.20;99.90;;;;;;6053148;23;20420;-84
2022/12/30 19:43:42;;;;;;;2.97;1.67;;;13.40;99.90;;;;;;6054543;23;20425;-85
2022/12/30 19:46:57;;;;;;;0.70;0.70;;;13.30;99.90;;;;;;5992541;24;20408;-85
2022/12/30 19:50:08;;;;;;;1.30;1.20;;;13.30;99.90;;;;;;5966521;24;20459;-85
2022/12/30 19:53:56;;;;;;;;;;;;;;;;;;;;;
2022/12/30 19:57:02;;;;;;;1.13;1.10;;;13.30;99.90;;;;;;5982433;24;20431;-90
2022/12/30 19:59:43;;;;;;;1.00;0.90;;;13.30;99.90;;;;;;5947925;24;20416;-87
2022/12/30 20:02:34;;;;;;;0.83;0.80;;;13.40;99.90;;;;;;5985299;24;20427;-86
2022/12/30 20:05:33;;;;;;;1.13;1.03;;;13.30;99.90;;;;;;6036410;23;20469;-86
2022/12/30 20:08:39;;;;;;;;;;;;;;;;;;;;;
2022/12/30 20:11:34;;;;;;;1.27;1.17;;;13.40;99.90;;;;;;6061646;23;20494;-87
2022/12/30 20:14:34;;;;;;;1.60;1.50;;;13.40;99.90;;;;;;6072739;23;20436;-86
2022/12/30 20:17:34;;;;;;;3.23;1.70;;;13.50;99.90;;;;;;6069946;23;20415;-86